createdAt,value
2019-06-27T00:04:06.892Z,26.40
2019-06-27T00:06:36.379Z,26.40
2019-06-27T00:09:08.411Z,26.40
2019-06-27T00:11:37.895Z,26.30
2019-06-27T00:14:07.238Z,26.20
2019-06-27T00:16:36.511Z,26.20
2019-06-27T00:19:08.060Z,26.10
2019-06-27T00:21:37.252Z,26.10
2019-06-27T00:24:08.418Z,26.00
2019-06-27T00:26:37.702Z,26.00
2019-06-27T00:29:07.039Z,26.00
2019-06-27T00:31:36.443Z,26.00
2019-06-27T00:34:05.807Z,26.00
2019-06-27T00:36:35.327Z,25.90
2019-06-27T00:39:06.075Z,25.80
2019-06-27T00:41:35.426Z,25.80
2019-06-27T00:44:04.724Z,25.80
2019-06-27T00:46:34.116Z,25.70
2019-06-27T00:49:03.443Z,25.70
2019-06-27T00:51:32.740Z,25.70
2019-06-27T00:54:02.057Z,25.60
2019-06-27T00:56:31.370Z,25.60
2019-06-27T00:59:00.623Z,25.60
2019-06-27T01:01:29.843Z,25.50
2019-06-27T01:04:00.571Z,25.50
2019-06-27T01:06:29.843Z,25.50
2019-06-27T01:08:59.155Z,25.40
2019-06-27T01:11:28.543Z,25.40
2019-06-27T01:13:57.862Z,25.40
2019-06-27T01:16:27.606Z,25.30
2019-06-27T01:18:56.927Z,25.30
2019-06-27T01:21:26.278Z,25.30
2019-06-27T01:23:55.604Z,25.20
2019-06-27T01:26:24.875Z,25.20
2019-06-27T01:28:54.243Z,25.20
2019-06-27T01:31:24.337Z,25.20
2019-06-27T01:33:53.942Z,25.10
2019-06-27T01:36:23.254Z,25.20
2019-06-27T01:38:52.525Z,25.10
2019-06-27T01:41:21.856Z,25.10
2019-06-27T01:43:52.474Z,25.10
2019-06-27T01:46:22.022Z,25.00
2019-06-27T01:48:51.663Z,25.00
2019-06-27T01:51:21.836Z,25.00
2019-06-27T01:53:51.155Z,25.00
2019-06-27T01:56:20.479Z,25.00
2019-06-27T01:58:49.767Z,25.00
2019-06-27T02:01:19.124Z,24.90
2019-06-27T02:03:48.437Z,24.90
2019-06-27T02:06:17.803Z,24.90
2019-06-27T02:08:47.084Z,24.90
2019-06-27T02:11:16.385Z,24.80
2019-06-27T02:13:45.681Z,24.80
2019-06-27T02:16:14.982Z,24.80
2019-06-27T02:18:44.323Z,24.80
2019-06-27T02:21:13.626Z,24.80
2019-06-27T02:23:42.943Z,24.80
2019-06-27T02:26:12.354Z,24.80
2019-06-27T02:28:41.627Z,24.80
2019-06-27T02:31:10.983Z,24.80
2019-06-27T02:33:40.716Z,24.70
2019-06-27T02:36:09.996Z,24.70
2019-06-27T02:38:39.265Z,24.70
2019-06-27T02:41:08.656Z,24.70
2019-06-27T02:43:37.949Z,24.60
2019-06-27T02:46:07.223Z,24.60
2019-06-27T02:48:36.501Z,24.50
2019-06-27T02:51:06.400Z,24.50
2019-06-27T02:53:35.692Z,24.50
2019-06-27T02:56:04.998Z,24.50
2019-06-27T02:58:34.431Z,24.50
2019-06-27T03:01:03.850Z,24.50
2019-06-27T03:03:33.199Z,24.50
2019-06-27T03:06:02.626Z,24.40
2019-06-27T03:08:31.936Z,24.40
2019-06-27T03:11:01.352Z,24.30
2019-06-27T03:13:30.650Z,24.30
2019-06-27T03:16:00.008Z,24.30
2019-06-27T03:18:29.379Z,24.30
2019-06-27T03:21:01.648Z,24.30
2019-06-27T03:23:30.994Z,24.30
2019-06-27T03:26:00.268Z,24.30
2019-06-27T03:28:49.788Z,24.30
2019-06-27T03:31:02.364Z,24.30
2019-06-27T03:33:38.165Z,24.30
2019-06-27T03:36:07.586Z,24.30
2019-06-27T03:38:36.950Z,24.40
2019-06-27T03:41:06.552Z,24.40
2019-06-27T03:43:35.840Z,24.40
2019-06-27T03:46:05.108Z,24.50
2019-06-27T03:48:34.410Z,24.50
2019-06-27T03:51:05.950Z,24.50
2019-06-27T03:53:35.283Z,24.50
2019-06-27T03:56:04.560Z,24.50
2019-06-27T03:58:33.923Z,24.60
2019-06-27T04:01:13.503Z,24.60
2019-06-27T04:03:51.018Z,24.70
2019-06-27T04:06:16.230Z,24.70
2019-06-27T04:08:45.535Z,24.80
2019-06-27T04:11:14.950Z,24.90
2019-06-27T04:13:46.260Z,25.00
2019-06-27T04:16:15.491Z,25.00
2019-06-27T04:18:44.859Z,25.10
2019-06-27T04:21:14.147Z,25.20
2019-06-27T04:23:43.760Z,25.30
2019-06-27T04:26:13.045Z,25.40
2019-06-27T04:28:42.342Z,25.40
2019-06-27T04:31:13.032Z,25.50
2019-06-27T04:33:42.312Z,25.50
2019-06-27T04:36:11.551Z,25.60
2019-06-27T04:38:40.821Z,25.70
2019-06-27T04:41:10.160Z,25.70
2019-06-27T04:43:39.549Z,25.80
2019-06-27T04:46:08.931Z,25.80
2019-06-27T04:48:38.310Z,25.80
2019-06-27T04:51:07.658Z,25.90
2019-06-27T04:53:37.137Z,26.00
2019-06-27T04:56:06.508Z,26.00
2019-06-27T04:58:35.820Z,26.20
2019-06-27T05:01:05.189Z,26.20
2019-06-27T05:03:34.434Z,26.30
2019-06-27T05:06:03.761Z,26.40
2019-06-27T05:08:33.116Z,26.50
2019-06-27T05:11:02.568Z,26.60
2019-06-27T05:13:31.911Z,26.60
2019-06-27T05:16:01.192Z,26.70
2019-06-27T05:18:32.471Z,26.70
2019-06-27T05:21:01.822Z,26.80
2019-06-27T05:23:31.091Z,27.00
2019-06-27T05:26:02.832Z,27.00
2019-06-27T05:28:32.057Z,27.10
2019-06-27T05:31:02.515Z,27.20
2019-06-27T05:33:31.947Z,27.40
2019-06-27T05:36:03.010Z,27.60
2019-06-27T05:38:32.322Z,27.70
2019-06-27T05:41:01.509Z,27.90
2019-06-27T05:43:30.934Z,28.20
2019-06-27T05:46:00.212Z,28.30
2019-06-27T05:48:29.467Z,28.40
2019-06-27T05:50:58.807Z,28.70
2019-06-27T05:53:28.116Z,28.90
2019-06-27T05:55:57.670Z,29.20
2019-06-27T05:58:27.045Z,29.30
2019-06-27T06:00:56.252Z,29.50
2019-06-27T06:03:27.627Z,29.70
2019-06-27T06:05:56.983Z,29.70
2019-06-27T06:08:26.281Z,29.90
2019-06-27T06:10:55.679Z,30.10
2019-06-27T06:13:25.002Z,30.40
2019-06-27T06:15:54.334Z,30.40
2019-06-27T06:18:23.621Z,30.50
2019-06-27T06:20:52.914Z,30.60
2019-06-27T06:23:22.227Z,30.70
2019-06-27T06:25:51.454Z,30.90
2019-06-27T06:28:20.743Z,31.00
2019-06-27T06:30:50.036Z,31.10
2019-06-27T06:33:19.381Z,31.20
2019-06-27T06:35:48.716Z,31.40
2019-06-27T06:38:18.212Z,31.50
2019-06-27T06:40:47.633Z,31.70
2019-06-27T06:43:17.039Z,32.00
2019-06-27T06:45:46.339Z,32.20
2019-06-27T06:48:15.709Z,32.30
2019-06-27T06:50:44.979Z,32.10
2019-06-27T06:53:14.312Z,32.10
2019-06-27T06:55:43.613Z,32.30
2019-06-27T06:58:12.922Z,32.40
2019-06-27T07:00:59.950Z,32.50
2019-06-27T07:03:14.309Z,32.40
2019-06-27T07:05:44.391Z,32.40
2019-06-27T07:08:13.790Z,32.40
2019-06-27T07:10:43.152Z,32.20
2019-06-27T07:13:12.487Z,32.20
2019-06-27T07:15:42.172Z,32.10
2019-06-27T07:18:11.422Z,32.00
2019-06-27T07:20:40.740Z,31.90
2019-06-27T07:23:10.039Z,32.00
2019-06-27T07:25:39.226Z,32.00
2019-06-27T07:28:09.775Z,32.10
2019-06-27T07:30:39.007Z,32.20
2019-06-27T07:33:10.363Z,32.20
2019-06-27T07:35:39.335Z,32.40
2019-06-27T07:38:08.723Z,32.50
2019-06-27T07:40:38.077Z,32.60
2019-06-27T07:43:07.338Z,32.80
2019-06-27T07:45:36.652Z,32.90
2019-06-27T07:48:06.288Z,32.90
2019-06-27T07:50:35.532Z,32.90
2019-06-27T07:53:04.925Z,33.00
2019-06-27T07:55:34.230Z,32.70
2019-06-27T07:58:04.352Z,32.70
2019-06-27T08:00:33.583Z,32.70
2019-06-27T08:03:04.942Z,32.80
2019-06-27T08:05:34.221Z,33.10
2019-06-27T08:08:03.729Z,33.20
2019-06-27T08:10:32.978Z,33.40
2019-06-27T08:13:03.238Z,33.70
2019-06-27T08:15:32.422Z,33.60
2019-06-27T08:18:01.701Z,33.90
2019-06-27T08:20:30.985Z,34.00
2019-06-27T08:23:00.296Z,34.00
2019-06-27T08:25:29.628Z,34.10
2019-06-27T08:27:58.989Z,34.20
2019-06-27T08:30:28.330Z,34.30
2019-06-27T08:32:57.675Z,34.20
2019-06-27T08:35:27.003Z,34.40
2019-06-27T08:37:56.199Z,34.50
2019-06-27T08:40:25.618Z,34.40
2019-06-27T08:42:54.822Z,34.60
2019-06-27T08:45:24.181Z,34.70
2019-06-27T08:47:53.561Z,34.50
2019-06-27T08:50:22.812Z,34.60
2019-06-27T08:52:52.124Z,34.80
2019-06-27T08:55:21.393Z,34.80
2019-06-27T08:57:50.765Z,34.80
2019-06-27T09:00:20.154Z,34.80
2019-06-27T09:02:49.418Z,34.80
2019-06-27T09:05:18.673Z,35.00
2019-06-27T09:07:48.030Z,35.10
2019-06-27T09:10:17.392Z,35.00
2019-06-27T09:12:46.754Z,35.10
2019-06-27T09:15:16.108Z,35.10
2019-06-27T09:17:48.223Z,34.90
2019-06-27T09:20:17.768Z,34.90
2019-06-27T09:22:47.006Z,34.90
2019-06-27T09:25:16.545Z,35.20
2019-06-27T09:27:51.223Z,35.20
2019-06-27T09:30:20.571Z,35.10
2019-06-27T09:32:49.821Z,35.10
2019-06-27T09:35:23.035Z,35.20
2019-06-27T09:37:52.388Z,35.50
2019-06-27T09:40:30.346Z,35.70
2019-06-27T09:43:00.419Z,35.10
2019-06-27T09:45:29.811Z,35.00
2019-06-27T09:47:59.090Z,34.90
2019-06-27T09:50:28.500Z,34.90
2019-06-27T09:52:57.901Z,34.80
2019-06-27T09:55:27.170Z,34.60
2019-06-27T09:57:56.915Z,34.40
2019-06-27T10:00:26.678Z,34.20
2019-06-27T10:02:57.201Z,34.30
2019-06-27T10:05:27.786Z,34.10
2019-06-27T10:07:59.079Z,34.10
2019-06-27T10:10:28.422Z,34.10
2019-06-27T10:12:57.701Z,33.90
2019-06-27T10:15:27.085Z,34.10
2019-06-27T10:17:56.426Z,34.00
2019-06-27T10:20:25.974Z,33.90
2019-06-27T10:22:55.314Z,34.00
2019-06-27T10:25:27.378Z,34.20
2019-06-27T10:27:57.686Z,34.10
2019-06-27T10:30:26.949Z,33.90
2019-06-27T10:32:59.846Z,33.90
2019-06-27T10:35:27.331Z,33.90
2019-06-27T10:37:56.631Z,33.70
2019-06-27T10:40:26.095Z,33.80
2019-06-27T10:42:55.424Z,33.90
2019-06-27T10:45:24.866Z,34.10
2019-06-27T10:47:54.217Z,34.30
2019-06-27T10:50:24.614Z,34.20
2019-06-27T10:52:54.180Z,34.30
2019-06-27T10:55:23.519Z,34.50
2019-06-27T10:57:52.809Z,34.40
2019-06-27T11:00:23.523Z,34.40
2019-06-27T11:02:52.852Z,34.40
2019-06-27T11:05:22.125Z,34.50
2019-06-27T11:07:51.446Z,34.40
2019-06-27T11:10:23.841Z,34.40
2019-06-27T11:12:53.198Z,34.20
2019-06-27T11:15:22.974Z,34.30
2019-06-27T11:17:52.294Z,34.10
2019-06-27T11:20:21.830Z,34.10
2019-06-27T11:22:51.166Z,34.10
2019-06-27T11:25:20.566Z,34.20
2019-06-27T11:27:49.886Z,34.30
2019-06-27T11:30:19.289Z,34.30
2019-06-27T11:32:48.763Z,34.20
2019-06-27T11:35:17.989Z,34.30
2019-06-27T11:37:47.340Z,34.20
2019-06-27T11:40:18.013Z,34.40
2019-06-27T11:42:47.358Z,34.40
2019-06-27T11:45:17.879Z,34.40
2019-06-27T11:47:47.225Z,34.30
2019-06-27T11:50:16.525Z,34.20
2019-06-27T11:52:47.277Z,34.20
2019-06-27T11:55:17.278Z,34.20
2019-06-27T11:57:49.601Z,34.20
2019-06-27T12:00:18.969Z,34.20
2019-06-27T12:02:48.293Z,34.10
2019-06-27T12:05:17.690Z,34.00
2019-06-27T12:07:47.135Z,34.10
2019-06-27T12:10:17.200Z,34.10
2019-06-27T12:12:46.610Z,34.20
2019-06-27T12:15:15.981Z,34.30
2019-06-27T12:17:45.294Z,34.30
2019-06-27T12:20:15.887Z,34.30
2019-06-27T12:22:45.242Z,34.20
2019-06-27T12:25:14.775Z,34.10
2019-06-27T12:27:44.092Z,34.20
2019-06-27T12:30:13.736Z,34.00
2019-06-27T12:32:51.917Z,33.80
2019-06-27T12:35:19.934Z,33.60
2019-06-27T12:37:49.476Z,33.40
2019-06-27T12:40:21.356Z,33.30
2019-06-27T12:42:51.049Z,33.20
2019-06-27T12:45:22.276Z,33.10
2019-06-27T12:47:54.418Z,33.10
2019-06-27T12:50:25.371Z,32.90
2019-06-27T12:52:54.747Z,32.70
2019-06-27T12:55:24.038Z,32.80
2019-06-27T12:57:53.520Z,32.80
2019-06-27T13:00:25.550Z,32.60
2019-06-27T13:02:54.938Z,32.40
2019-06-27T13:05:24.272Z,32.40
2019-06-27T13:07:53.560Z,32.40
2019-06-27T13:10:23.767Z,32.30
2019-06-27T13:12:53.093Z,32.30
2019-06-27T13:15:24.078Z,32.40
2019-06-27T13:17:53.386Z,32.40
2019-06-27T13:20:22.585Z,32.30
2019-06-27T13:22:51.871Z,32.30
2019-06-27T13:25:21.331Z,32.40
2019-06-27T13:27:50.941Z,32.30
2019-06-27T13:30:21.807Z,32.20
2019-06-27T13:32:51.772Z,32.20
2019-06-27T13:35:21.266Z,32.30
2019-06-27T13:37:50.546Z,32.20
2019-06-27T13:40:20.103Z,32.10
2019-06-27T13:42:49.346Z,32.00
2019-06-27T13:45:18.711Z,32.00
2019-06-27T13:47:48.150Z,31.90
2019-06-27T13:50:17.449Z,31.90
2019-06-27T13:52:46.743Z,31.80
2019-06-27T13:55:16.172Z,31.70
2019-06-27T13:57:45.431Z,31.60
2019-06-27T14:00:15.775Z,31.50
2019-06-27T14:02:45.679Z,31.20
2019-06-27T14:05:14.982Z,31.10
2019-06-27T14:07:44.312Z,31.10
2019-06-27T14:10:13.676Z,31.10
2019-06-27T14:12:44.870Z,31.00
2019-06-27T14:15:14.403Z,30.90
2019-06-27T14:17:45.812Z,31.00
2019-06-27T14:20:15.584Z,30.90
2019-06-27T14:22:44.980Z,30.70
2019-06-27T14:25:14.314Z,30.70
2019-06-27T14:27:43.629Z,30.60
2019-06-27T14:30:14.492Z,30.50
2019-06-27T14:32:43.890Z,30.50
2019-06-27T14:35:16.031Z,30.50
2019-06-27T14:37:44.162Z,30.50
2019-06-27T14:40:13.737Z,30.50
2019-06-27T14:42:43.491Z,30.40
2019-06-27T14:45:12.958Z,30.40
2019-06-27T14:47:42.150Z,30.40
2019-06-27T14:50:14.663Z,30.50
2019-06-27T14:52:43.915Z,30.50
2019-06-27T14:55:14.212Z,30.50
2019-06-27T14:57:43.538Z,30.40
2019-06-27T15:00:14.811Z,30.40
2019-06-27T15:02:44.454Z,30.40
2019-06-27T15:05:28.060Z,30.30
2019-06-27T15:07:47.630Z,30.20
2019-06-27T15:10:17.312Z,30.20
2019-06-27T15:12:56.337Z,30.30
2019-06-27T15:15:18.094Z,30.30
2019-06-27T15:17:49.765Z,30.30
2019-06-27T15:20:19.887Z,30.30
2019-06-27T15:22:49.267Z,30.30
2019-06-27T15:25:18.507Z,30.10
2019-06-27T15:27:47.934Z,30.00
2019-06-27T15:30:17.262Z,30.10
2019-06-27T15:32:46.586Z,30.10
2019-06-27T15:35:16.674Z,30.10
2019-06-27T15:37:48.769Z,29.90
2019-06-27T15:40:18.013Z,30.00
2019-06-27T15:42:47.385Z,30.00
2019-06-27T15:45:16.966Z,30.00
2019-06-27T15:47:49.027Z,29.90
2019-06-27T15:50:18.360Z,29.80
2019-06-27T15:52:47.954Z,29.70
2019-06-27T15:55:17.300Z,29.70
2019-06-27T15:57:46.717Z,29.50
2019-06-27T16:00:16.163Z,29.50
2019-06-27T16:02:48.325Z,29.50
2019-06-27T16:05:18.103Z,29.30
2019-06-27T16:07:47.731Z,29.20
2019-06-27T16:10:18.663Z,29.10
2019-06-27T16:12:47.991Z,29.00
2019-06-27T16:15:17.279Z,29.00
2019-06-27T16:17:46.562Z,28.90
2019-06-27T16:20:16.529Z,28.90
2019-06-27T16:22:45.860Z,28.90
2019-06-27T16:25:16.625Z,28.80
2019-06-27T16:27:48.118Z,28.80
2019-06-27T16:30:18.109Z,28.90
2019-06-27T16:32:47.410Z,29.00
2019-06-27T16:35:16.679Z,28.90
2019-06-27T16:37:45.931Z,28.70
2019-06-27T16:40:15.196Z,28.70
2019-06-27T16:42:44.404Z,28.70
2019-06-27T16:45:13.738Z,28.60
2019-06-27T16:47:43.875Z,28.60
2019-06-27T16:50:13.465Z,28.60
2019-06-27T16:52:42.710Z,28.60
2019-06-27T16:55:12.010Z,28.60
2019-06-27T16:57:41.372Z,28.50
2019-06-27T17:00:11.224Z,28.40
2019-06-27T17:02:40.708Z,28.40
2019-06-27T17:05:10.454Z,28.10
2019-06-27T17:07:39.944Z,28.00
2019-06-27T17:10:09.524Z,27.90
2019-06-27T17:12:39.031Z,27.80
2019-06-27T17:15:09.052Z,27.80
2019-06-27T17:17:38.483Z,27.70
2019-06-27T17:20:10.626Z,27.60
2019-06-27T17:22:40.170Z,27.50
2019-06-27T17:25:09.968Z,27.50
2019-06-27T17:27:39.532Z,27.50
2019-06-27T17:30:11.873Z,27.50
2019-06-27T17:32:40.796Z,27.50
2019-06-27T17:35:10.077Z,27.40
2019-06-27T17:37:39.384Z,27.40
2019-06-27T17:40:10.265Z,27.30
2019-06-27T17:42:40.066Z,27.30
2019-06-27T17:45:09.906Z,27.10
2019-06-27T17:47:39.260Z,27.10
2019-06-27T17:50:09.128Z,27.10
2019-06-27T17:52:38.541Z,27.10
2019-06-27T17:55:08.524Z,27.00
2019-06-27T17:57:38.483Z,26.90
2019-06-27T18:00:10.190Z,26.60
2019-06-27T18:02:39.939Z,26.60
2019-06-27T18:05:09.578Z,26.50
2019-06-27T18:07:39.062Z,26.50
2019-06-27T18:10:09.180Z,26.50
2019-06-27T18:12:38.955Z,26.30
2019-06-27T18:15:08.741Z,26.20
2019-06-27T18:17:38.131Z,26.20
2019-06-27T18:20:07.973Z,26.10
2019-06-27T18:22:37.489Z,26.00
2019-06-27T18:25:07.027Z,26.00
2019-06-27T18:27:36.448Z,26.10
2019-06-27T18:30:07.844Z,26.10
2019-06-27T18:32:37.327Z,26.00
2019-06-27T18:35:06.874Z,25.80
2019-06-27T18:37:36.299Z,25.80
2019-06-27T18:40:06.363Z,25.90
2019-06-27T18:42:36.011Z,25.80
2019-06-27T18:45:06.297Z,25.70
2019-06-27T18:47:38.694Z,25.50
2019-06-27T18:50:09.480Z,25.50
2019-06-27T18:52:39.020Z,25.50
2019-06-27T18:55:09.443Z,25.50
2019-06-27T18:57:39.724Z,25.50
2019-06-27T19:00:10.168Z,25.40
2019-06-27T19:02:39.509Z,25.40
2019-06-27T19:05:09.461Z,25.40
2019-06-27T19:07:45.512Z,25.20
2019-06-27T19:10:10.829Z,25.20
2019-06-27T19:12:40.796Z,25.10
2019-06-27T19:15:11.646Z,25.00
2019-06-27T19:17:41.136Z,24.90
2019-06-27T19:20:35.853Z,24.80
2019-06-27T19:23:26.035Z,24.70
2019-06-27T19:25:58.297Z,24.50
2019-06-27T19:28:27.717Z,24.20
2019-06-27T19:30:57.243Z,24.20
2019-06-27T19:33:28.785Z,24.10
2019-06-27T19:35:58.207Z,24.10
2019-06-27T19:38:27.556Z,24.00
2019-06-27T19:40:56.977Z,23.90
2019-06-27T19:43:28.236Z,23.80
2019-06-27T19:45:58.002Z,23.70
2019-06-27T19:48:27.384Z,23.70
2019-06-27T19:50:56.956Z,23.60
2019-06-27T19:53:26.358Z,23.50
2019-06-27T19:55:55.939Z,23.40
2019-06-27T19:58:27.342Z,23.30
2019-06-27T20:00:56.671Z,23.40
2019-06-27T20:03:27.428Z,23.30
2019-06-27T20:05:56.844Z,23.20
2019-06-27T20:08:28.519Z,23.20
2019-06-27T20:10:58.075Z,23.20
2019-06-27T20:13:27.844Z,23.00
2019-06-27T20:15:57.715Z,23.00
2019-06-27T20:18:27.315Z,22.90
2019-06-27T20:20:57.126Z,22.80
2019-06-27T20:23:26.677Z,22.80
2019-06-27T20:25:56.427Z,22.80
2019-06-27T20:28:28.236Z,22.70
2019-06-27T20:30:57.818Z,22.60
2019-06-27T20:33:27.620Z,22.70
2019-06-27T20:35:57.112Z,22.50
2019-06-27T20:38:35.023Z,22.40
2019-06-27T20:40:58.216Z,22.40
2019-06-27T20:43:27.580Z,22.40
2019-06-27T20:45:57.178Z,22.20
2019-06-27T20:48:29.309Z,22.10
2019-06-27T20:50:59.077Z,22.10
2019-06-27T20:53:28.805Z,22.10
2019-06-27T20:55:58.610Z,22.00
2019-06-27T20:58:28.280Z,22.00
2019-06-27T21:00:57.789Z,21.90
2019-06-27T21:03:27.924Z,21.80
2019-06-27T21:05:57.879Z,21.80
2019-06-27T21:08:27.267Z,21.80
2019-06-27T21:10:57.268Z,21.70
2019-06-27T21:13:26.834Z,21.70
2019-06-27T21:15:56.588Z,21.70
2019-06-27T21:18:28.197Z,21.60
2019-06-27T21:20:57.585Z,21.50
2019-06-27T21:23:27.191Z,21.50
2019-06-27T21:25:56.859Z,21.50
2019-06-27T21:28:26.416Z,21.50
2019-06-27T21:30:56.328Z,21.30
2019-06-27T21:33:25.861Z,21.20
2019-06-27T21:35:55.280Z,21.10
2019-06-27T21:38:27.543Z,21.20
2019-06-27T21:40:57.330Z,21.10
2019-06-27T21:43:27.243Z,21.10
2019-06-27T21:45:56.759Z,21.00
2019-06-27T21:48:28.830Z,21.00
2019-06-27T21:50:58.854Z,21.00
2019-06-27T21:53:28.453Z,20.90
2019-06-27T21:55:58.355Z,20.90
2019-06-27T21:58:27.689Z,20.90
2019-06-27T22:00:57.680Z,20.90
2019-06-27T22:03:27.023Z,20.90
2019-06-27T22:05:56.474Z,20.90
2019-06-27T22:08:25.929Z,20.80
2019-06-27T22:10:55.311Z,20.80
2019-06-27T22:13:48.220Z,20.80
2019-06-27T22:16:17.570Z,20.70
2019-06-27T22:18:46.846Z,20.70
2019-06-27T22:21:16.037Z,20.60
2019-06-27T22:23:45.345Z,20.60
2019-06-27T22:26:15.703Z,20.60
2019-06-27T22:28:46.834Z,20.50
2019-06-27T22:31:16.118Z,20.50
2019-06-27T22:33:45.427Z,20.50
2019-06-27T22:36:14.746Z,20.40
2019-06-27T22:39:01.557Z,20.40
2019-06-27T22:41:48.270Z,20.40
2019-06-27T22:44:35.080Z,20.20
2019-06-27T22:47:22.355Z,20.30
2019-06-27T22:49:52.336Z,20.20
2019-06-27T22:52:40.669Z,20.10
2019-06-27T22:55:11.990Z,20.10
2019-06-27T22:57:50.151Z,20.10
2019-06-27T23:00:20.398Z,20.10
2019-06-27T23:02:49.778Z,20.00
2019-06-27T23:05:20.248Z,20.00
2019-06-27T23:07:49.489Z,20.00
2019-06-27T23:10:18.805Z,20.00
2019-06-27T23:12:48.094Z,19.90
2019-06-27T23:15:17.475Z,19.90
2019-06-27T23:17:46.726Z,19.90
2019-06-27T23:20:16.085Z,19.80
2019-06-27T23:22:45.370Z,19.80
2019-06-27T23:25:14.575Z,19.70
2019-06-27T23:27:43.863Z,19.70
2019-06-27T23:30:13.195Z,19.70
2019-06-27T23:32:42.479Z,19.70
2019-06-27T23:35:11.937Z,19.70
2019-06-27T23:37:41.317Z,19.70
2019-06-27T23:40:14.542Z,19.60
2019-06-27T23:42:42.009Z,19.60
2019-06-27T23:45:11.213Z,19.60
2019-06-27T23:47:40.449Z,19.50
2019-06-27T23:50:09.946Z,19.50
2019-06-27T23:52:39.225Z,19.50
2019-06-27T23:55:08.510Z,19.50
2019-06-27T23:57:37.761Z,19.50
